createdAt,value
2019-03-18T00:02:00.668Z,12.60
2019-03-18T00:04:29.001Z,12.33
2019-03-18T00:06:57.209Z,12.43
2019-03-18T00:09:25.684Z,10.43
2019-03-18T00:11:53.890Z,13.83
2019-03-18T00:14:22.069Z,10.87
2019-03-18T00:16:50.246Z,6.53
2019-03-18T00:19:18.638Z,10.40
2019-03-18T00:21:46.866Z,10.37
2019-03-18T00:24:15.231Z,9.07
2019-03-18T00:26:43.383Z,7.33
2019-03-18T00:29:11.533Z,9.00
2019-03-18T00:31:39.957Z,13.80
2019-03-18T00:34:08.174Z,17.73
2019-03-18T00:36:36.774Z,10.37
2019-03-18T00:39:06.681Z,9.03
2019-03-18T00:41:35.198Z,9.37
2019-03-18T00:44:03.381Z,7.30
2019-03-18T00:46:31.599Z,10.13
2019-03-18T00:48:59.944Z,10.00
2019-03-18T00:51:28.168Z,9.03
2019-03-18T00:53:56.449Z,15.90
2019-03-18T00:56:24.638Z,10.67
2019-03-18T00:58:53.837Z,9.87
2019-03-18T01:01:22.048Z,13.07
2019-03-18T01:03:50.428Z,11.53
2019-03-18T01:06:18.638Z,8.80
2019-03-18T01:08:46.991Z,10.47
2019-03-18T01:11:15.139Z,7.23
2019-03-18T01:13:43.337Z,7.00
2019-03-18T01:16:11.527Z,5.27
2019-03-18T01:18:39.840Z,4.90
2019-03-18T01:21:08.039Z,4.53
2019-03-18T01:23:36.531Z,3.23
2019-03-18T01:26:04.658Z,4.00
2019-03-18T01:28:32.864Z,2.70
2019-03-18T01:31:01.089Z,5.80
2019-03-18T01:33:29.433Z,2.73
2019-03-18T01:35:57.939Z,3.10
2019-03-18T01:38:26.123Z,3.37
2019-03-18T01:40:54.443Z,3.73
2019-03-18T01:43:22.865Z,5.63
2019-03-18T01:45:51.086Z,2.70
2019-03-18T01:48:19.827Z,5.47
2019-03-18T01:50:48.504Z,2.60
2019-03-18T01:53:16.691Z,2.63
2019-03-18T01:55:44.893Z,3.10
2019-03-18T01:58:13.015Z,3.90
2019-03-18T02:00:42.364Z,2.40
2019-03-18T02:03:10.638Z,5.23
2019-03-18T02:05:39.008Z,2.57
2019-03-18T02:08:07.715Z,1.77
2019-03-18T02:10:35.903Z,2.33
2019-03-18T02:13:04.386Z,4.77
2019-03-18T02:15:32.593Z,5.03
2019-03-18T02:18:00.765Z,4.40
2019-03-18T02:20:29.423Z,1.80
2019-03-18T02:22:57.797Z,2.10
2019-03-18T02:25:25.966Z,1.17
2019-03-18T02:27:54.304Z,2.80
2019-03-18T02:30:22.616Z,1.20
2019-03-18T02:32:51.009Z,2.30
2019-03-18T02:35:19.626Z,2.10
2019-03-18T02:37:48.293Z,9.17
2019-03-18T02:40:16.467Z,8.00
2019-03-18T02:42:44.671Z,4.77
2019-03-18T02:45:12.929Z,2.57
2019-03-18T02:47:41.416Z,1.80
2019-03-18T02:50:09.757Z,1.27
2019-03-18T02:52:37.949Z,1.90
2019-03-18T02:55:06.670Z,1.57
2019-03-18T02:57:35.154Z,1.40
2019-03-18T03:00:04.994Z,1.40
2019-03-18T03:02:33.300Z,1.50
2019-03-18T03:05:01.645Z,1.50
2019-03-18T03:07:30.210Z,3.23
2019-03-18T03:09:58.645Z,8.43
2019-03-18T03:12:26.950Z,3.10
2019-03-18T03:14:55.397Z,3.47
2019-03-18T03:17:23.871Z,3.07
2019-03-18T03:19:52.291Z,6.77
2019-03-18T03:22:20.513Z,4.87
2019-03-18T03:24:48.718Z,5.03
2019-03-18T03:27:16.938Z,6.90
2019-03-18T03:29:45.425Z,6.33
2019-03-18T03:32:13.602Z,6.07
2019-03-18T03:34:41.740Z,4.87
2019-03-18T03:37:10.183Z,3.03
2019-03-18T03:39:38.514Z,3.87
2019-03-18T03:42:06.705Z,5.73
2019-03-18T03:44:34.934Z,3.80
2019-03-18T03:47:03.069Z,2.13
2019-03-18T03:49:31.330Z,1.60
2019-03-18T03:51:59.688Z,2.50
2019-03-18T03:54:27.845Z,3.07
2019-03-18T03:56:56.150Z,3.60
2019-03-18T03:59:24.418Z,2.60
2019-03-18T04:01:52.735Z,3.10
2019-03-18T04:04:23.943Z,2.80
2019-03-18T04:06:52.142Z,3.13
2019-03-18T04:09:20.327Z,2.57
2019-03-18T04:11:48.459Z,4.13
2019-03-18T04:14:16.907Z,3.00
2019-03-18T04:16:55.819Z,4.10
2019-03-18T04:19:15.285Z,9.37
2019-03-18T04:21:43.512Z,4.33
2019-03-18T04:24:11.690Z,8.50
2019-03-18T04:26:40.105Z,6.40
2019-03-18T04:29:08.759Z,8.27
2019-03-18T04:31:37.258Z,5.13
2019-03-18T04:34:10.282Z,3.90
2019-03-18T04:36:38.776Z,5.27
2019-03-18T04:39:07.198Z,5.80
2019-03-18T04:41:35.841Z,4.40
2019-03-18T04:44:04.271Z,6.17
2019-03-18T04:46:32.508Z,11.37
2019-03-18T04:49:00.956Z,13.37
2019-03-18T04:51:29.562Z,11.57
2019-03-18T04:53:58.023Z,12.33
2019-03-18T04:56:26.189Z,9.70
2019-03-18T04:58:54.538Z,7.87
2019-03-18T05:01:23.344Z,7.00
2019-03-18T05:03:51.623Z,5.47
2019-03-18T05:06:21.379Z,5.23
2019-03-18T05:08:49.787Z,5.60
2019-03-18T05:11:17.976Z,3.80
2019-03-18T05:13:46.482Z,6.07
2019-03-18T05:16:14.870Z,7.20
2019-03-18T05:18:43.111Z,11.50
2019-03-18T05:21:11.438Z,10.83
2019-03-18T05:23:39.980Z,11.50
2019-03-18T05:26:08.325Z,11.60
2019-03-18T05:28:36.895Z,10.20
2019-03-18T05:31:05.281Z,6.83
2019-03-18T05:33:33.488Z,4.83
2019-03-18T05:36:01.998Z,5.40
2019-03-18T05:38:30.665Z,6.13
2019-03-18T05:40:58.865Z,6.00
2019-03-18T05:43:27.218Z,5.53
2019-03-18T05:45:55.619Z,5.37
2019-03-18T05:48:23.964Z,6.00
2019-03-18T05:50:52.218Z,10.60
2019-03-18T05:53:20.716Z,5.23
2019-03-18T05:55:49.347Z,9.57
2019-03-18T05:58:17.709Z,8.33
2019-03-18T06:00:46.018Z,7.97
2019-03-18T06:03:14.165Z,7.03
2019-03-18T06:05:42.835Z,9.37
2019-03-18T06:08:11.934Z,10.87
2019-03-18T06:10:40.339Z,12.73
2019-03-18T06:13:08.533Z,11.87
2019-03-18T06:15:36.819Z,10.60
2019-03-18T06:18:05.552Z,9.77
2019-03-18T06:20:33.728Z,8.37
2019-03-18T06:23:02.320Z,11.20
2019-03-18T06:25:30.590Z,11.43
2019-03-18T06:27:58.910Z,11.90
2019-03-18T06:30:27.133Z,14.83
2019-03-18T06:32:55.883Z,6.07
2019-03-18T06:35:24.291Z,9.03
2019-03-18T06:37:52.690Z,6.93
2019-03-18T06:40:21.194Z,16.27
2019-03-18T06:42:49.810Z,20.60
2019-03-18T06:45:17.952Z,13.40
2019-03-18T06:47:46.318Z,10.47
2019-03-18T06:50:14.600Z,9.37
2019-03-18T06:52:42.735Z,9.03
2019-03-18T06:55:10.991Z,8.20
2019-03-18T06:57:40.073Z,8.17
2019-03-18T07:00:10.384Z,7.37
2019-03-18T07:02:38.814Z,7.97
2019-03-18T07:05:07.467Z,5.17
2019-03-18T07:07:35.610Z,5.73
2019-03-18T07:10:06.268Z,4.17
2019-03-18T07:12:34.756Z,3.73
2019-03-18T07:15:02.932Z,2.33
2019-03-18T07:17:31.071Z,3.20
2019-03-18T07:19:59.670Z,8.33
2019-03-18T07:22:28.012Z,6.10
2019-03-18T07:24:56.419Z,7.63
2019-03-18T07:27:25.062Z,5.57
2019-03-18T07:29:53.180Z,4.20
2019-03-18T07:32:21.371Z,3.57
2019-03-18T07:34:49.863Z,2.17
2019-03-18T07:37:18.321Z,3.03
2019-03-18T07:39:46.552Z,2.20
2019-03-18T07:42:15.294Z,2.73
2019-03-18T07:44:43.548Z,1.90
2019-03-18T07:47:12.026Z,2.50
2019-03-18T07:49:40.436Z,3.17
2019-03-18T07:52:08.609Z,2.93
2019-03-18T07:54:36.903Z,10.57
2019-03-18T07:57:05.629Z,4.50
2019-03-18T07:59:33.767Z,19.30
2019-03-18T08:02:01.942Z,15.73
2019-03-18T08:04:37.316Z,16.33
2019-03-18T08:07:00.247Z,7.80
2019-03-18T08:09:28.855Z,5.90
2019-03-18T08:11:58.065Z,3.10
2019-03-18T08:14:26.468Z,3.00
2019-03-18T08:16:54.602Z,3.37
2019-03-18T08:19:23.141Z,3.00
2019-03-18T08:21:51.288Z,2.27
2019-03-18T08:24:19.469Z,4.03
2019-03-18T08:26:47.846Z,4.30
2019-03-18T08:29:16.414Z,4.20
2019-03-18T08:31:45.077Z,5.03
2019-03-18T08:34:13.433Z,5.27
2019-03-18T08:36:41.675Z,54.53
2019-03-18T08:39:12.100Z,3.00
2019-03-18T08:41:40.222Z,3.30
2019-03-18T08:44:08.382Z,2.10
2019-03-18T08:46:36.539Z,1.60
2019-03-18T08:49:04.715Z,2.97
2019-03-18T08:51:32.909Z,5.67
2019-03-18T08:54:01.539Z,4.20
2019-03-18T08:56:29.863Z,4.60
2019-03-18T08:58:58.355Z,2.90
2019-03-18T09:01:26.536Z,6.43
2019-03-18T09:03:55.167Z,3.57
2019-03-18T09:06:23.282Z,2.60
2019-03-18T09:08:51.664Z,2.63
2019-03-18T09:11:20.402Z,2.20
2019-03-18T09:13:49.926Z,2.10
2019-03-18T09:16:18.221Z,2.70
2019-03-18T09:18:46.469Z,3.53
2019-03-18T09:21:14.730Z,12.03
2019-03-18T09:23:43.256Z,5.90
2019-03-18T09:26:12.103Z,7.27
2019-03-18T09:28:40.231Z,6.43
2019-03-18T09:31:08.466Z,5.23
2019-03-18T09:33:36.787Z,3.57
2019-03-18T09:36:05.529Z,12.43
2019-03-18T09:38:34.346Z,5.10
2019-03-18T09:41:03.805Z,6.40
2019-03-18T09:43:32.586Z,4.73
2019-03-18T09:46:20.244Z,3.40
2019-03-18T09:48:48.384Z,3.23
2019-03-18T09:51:16.578Z,3.00
2019-03-18T09:53:44.913Z,4.60
2019-03-18T09:56:13.074Z,3.13
2019-03-18T09:58:41.236Z,3.60
2019-03-18T10:01:09.449Z,5.23
2019-03-18T10:03:37.629Z,2.90
2019-03-18T10:06:05.760Z,5.80
2019-03-18T10:08:34.169Z,10.30
2019-03-18T10:11:02.302Z,8.13
2019-03-18T10:13:30.708Z,3.87
2019-03-18T10:16:00.188Z,3.03
2019-03-18T10:18:28.627Z,4.40
2019-03-18T10:20:56.760Z,4.07
2019-03-18T10:23:24.988Z,16.20
2019-03-18T10:25:53.130Z,12.80
2019-03-18T10:28:21.493Z,33.77
2019-03-18T10:30:49.974Z,9.07
2019-03-18T10:33:18.110Z,8.17
2019-03-18T10:35:46.298Z,5.97
2019-03-18T10:38:14.519Z,11.90
2019-03-18T10:40:42.830Z,9.23
2019-03-18T10:43:11.284Z,5.83
2019-03-18T10:45:40.543Z,8.33
2019-03-18T10:48:09.038Z,4.13
2019-03-18T10:50:37.294Z,2.70
2019-03-18T10:53:05.997Z,4.07
2019-03-18T10:55:34.551Z,4.60
2019-03-18T10:58:02.948Z,9.80
2019-03-18T11:00:31.156Z,5.83
2019-03-18T11:02:59.490Z,8.00
2019-03-18T11:05:27.964Z,4.80
2019-03-18T11:07:56.142Z,4.97
2019-03-18T11:10:24.596Z,4.60
2019-03-18T11:12:52.742Z,19.87
2019-03-18T11:15:21.304Z,14.40
2019-03-18T11:17:50.573Z,13.90
2019-03-18T11:20:18.708Z,6.70
2019-03-18T11:22:47.019Z,4.17
2019-03-18T11:25:15.998Z,7.57
2019-03-18T11:27:44.406Z,8.57
2019-03-18T11:30:15.770Z,9.90
2019-03-18T11:32:43.923Z,6.47
2019-03-18T11:35:12.272Z,4.67
2019-03-18T11:37:40.526Z,5.60
2019-03-18T11:40:17.986Z,9.07
2019-03-18T11:42:46.351Z,8.67
2019-03-18T11:45:15.156Z,7.00
2019-03-18T11:47:43.412Z,6.73
2019-03-18T11:50:13.270Z,14.53
2019-03-18T11:52:41.392Z,6.00
2019-03-18T11:55:11.289Z,6.53
2019-03-18T11:57:39.470Z,12.80
2019-03-18T12:00:09.293Z,6.30
2019-03-18T12:02:37.426Z,10.00
2019-03-18T12:05:07.561Z,11.27
2019-03-18T12:07:36.073Z,10.60
2019-03-18T12:10:06.391Z,17.97
2019-03-18T12:12:35.278Z,6.37
2019-03-18T12:15:04.301Z,8.27
2019-03-18T12:17:32.557Z,9.43
2019-03-18T12:20:02.257Z,11.70
2019-03-18T12:22:30.781Z,9.30
2019-03-18T12:24:58.928Z,6.67
2019-03-18T12:27:27.114Z,5.77
2019-03-18T12:29:55.258Z,5.93
2019-03-18T12:32:23.717Z,5.40
2019-03-18T12:34:52.350Z,4.37
2019-03-18T12:37:21.526Z,5.73
2019-03-18T12:39:50.005Z,11.47
2019-03-18T12:42:18.200Z,7.30
2019-03-18T12:44:46.544Z,12.90
2019-03-18T12:47:14.699Z,14.03
2019-03-18T12:49:43.537Z,14.87
2019-03-18T12:52:11.798Z,16.90
2019-03-18T12:54:40.046Z,9.60
2019-03-18T12:57:09.565Z,37.50
2019-03-18T12:59:39.851Z,6.67
2019-03-18T13:02:07.918Z,7.80
2019-03-18T13:04:39.352Z,6.57
2019-03-18T13:07:07.910Z,8.67
2019-03-18T13:09:36.201Z,5.80
2019-03-18T13:12:04.410Z,5.73
2019-03-18T13:14:32.983Z,5.40
2019-03-18T13:17:02.164Z,5.10
2019-03-18T13:19:30.427Z,4.90
2019-03-18T13:21:59.251Z,21.37
2019-03-18T13:24:27.538Z,5.70
2019-03-18T13:26:58.622Z,8.00
2019-03-18T13:29:25.938Z,4.63
2019-03-18T13:31:54.077Z,3.67
2019-03-18T13:34:22.378Z,3.90
2019-03-18T13:36:50.644Z,3.60
2019-03-18T13:39:18.903Z,3.87
2019-03-18T13:41:47.117Z,6.33
2019-03-18T13:44:15.256Z,12.30
2019-03-18T13:46:44.127Z,8.60
2019-03-18T13:49:15.750Z,10.40
2019-03-18T13:51:42.547Z,16.93
2019-03-18T13:54:11.024Z,5.33
2019-03-18T13:56:39.902Z,4.57
2019-03-18T13:59:08.502Z,5.07
2019-03-18T14:01:36.847Z,4.07
2019-03-18T14:04:05.179Z,4.40
2019-03-18T14:06:33.960Z,4.97
2019-03-18T14:09:02.403Z,4.47
2019-03-18T14:11:30.844Z,6.30
2019-03-18T14:13:59.030Z,3.20
2019-03-18T14:16:27.209Z,3.20
2019-03-18T14:18:55.517Z,4.20
2019-03-18T14:21:32.802Z,4.63
2019-03-18T14:23:56.197Z,7.63
2019-03-18T14:26:24.735Z,6.73
2019-03-18T14:28:52.883Z,3.57
2019-03-18T14:31:21.025Z,4.83
2019-03-18T14:33:49.372Z,5.07
2019-03-18T14:36:19.981Z,5.10
2019-03-18T14:38:50.957Z,4.73
2019-03-18T14:41:19.188Z,6.87
2019-03-18T14:43:49.928Z,6.87
2019-03-18T14:46:18.123Z,6.20
2019-03-18T14:48:51.053Z,5.80
2019-03-18T14:51:22.019Z,3.47
2019-03-18T14:53:52.981Z,11.27
2019-03-18T14:56:24.047Z,5.80
2019-03-18T14:58:52.823Z,5.40
2019-03-18T15:01:23.627Z,21.83
2019-03-18T15:03:56.580Z,8.20
2019-03-18T15:06:24.805Z,5.53
2019-03-18T15:08:55.962Z,23.00
2019-03-18T15:11:24.446Z,11.27
2019-03-18T15:13:52.813Z,4.67
2019-03-18T15:16:21.285Z,11.67
2019-03-18T15:18:52.850Z,12.80
2019-03-18T15:21:21.331Z,7.60
2019-03-18T15:23:49.486Z,5.80
2019-03-18T15:26:21.093Z,7.37
2019-03-18T15:28:49.387Z,11.67
2019-03-18T15:31:18.200Z,7.87
2019-03-18T15:33:46.547Z,12.83
2019-03-18T15:36:17.198Z,12.57
2019-03-18T15:38:45.821Z,9.00
2019-03-18T15:41:14.684Z,6.33
2019-03-18T15:43:42.968Z,6.33
2019-03-18T15:46:13.929Z,7.77
2019-03-18T15:48:42.395Z,8.43
2019-03-18T15:51:10.855Z,14.13
2019-03-18T15:53:39.317Z,19.37
2019-03-18T15:56:07.896Z,8.57
2019-03-18T15:58:36.362Z,6.40
2019-03-18T16:01:04.788Z,9.03
2019-03-18T16:03:33.263Z,10.03
2019-03-18T16:06:01.760Z,12.50
2019-03-18T16:08:29.988Z,11.17
2019-03-18T16:10:58.178Z,14.70
2019-03-18T16:13:26.773Z,8.87
2019-03-18T16:15:54.915Z,11.07
2019-03-18T16:18:23.736Z,11.40
2019-03-18T16:20:52.103Z,13.50
2019-03-18T16:23:20.377Z,12.00
2019-03-18T16:25:48.652Z,22.00
2019-03-18T16:28:17.867Z,30.80
2019-03-18T16:30:46.145Z,13.77
2019-03-18T16:33:14.363Z,15.57
2019-03-18T16:35:42.503Z,8.60
2019-03-18T16:38:10.695Z,15.80
2019-03-18T16:40:39.021Z,19.23
2019-03-18T16:43:07.603Z,18.90
2019-03-18T16:45:35.997Z,14.93
2019-03-18T16:48:04.247Z,19.13
2019-03-18T16:50:32.491Z,20.43
2019-03-18T16:53:00.797Z,39.77
2019-03-18T16:55:29.050Z,51.58
2019-03-18T16:57:57.258Z,37.00
2019-03-18T17:00:26.293Z,45.87
2019-03-18T17:02:54.507Z,45.13
2019-03-18T17:05:22.825Z,80.43
2019-03-18T17:07:53.948Z,27.07
2019-03-18T17:10:21.029Z,25.67
2019-03-18T17:12:49.892Z,52.63
2019-03-18T17:15:18.760Z,50.90
2019-03-18T17:17:47.241Z,27.50
2019-03-18T17:20:16.171Z,55.67
2019-03-18T17:22:49.389Z,38.77
2019-03-18T17:25:18.069Z,62.50
2019-03-18T17:27:46.263Z,68.10
2019-03-18T17:30:16.500Z,127.13
2019-03-18T17:32:44.818Z,308.37
2019-03-18T17:35:12.962Z,126.03
2019-03-18T17:37:41.456Z,123.50
2019-03-18T17:40:11.052Z,97.57
2019-03-18T17:42:39.844Z,61.10
2019-03-18T17:45:09.230Z,63.43
2019-03-18T17:47:37.469Z,40.73
2019-03-18T17:50:07.397Z,55.77
2019-03-18T17:52:36.014Z,47.53
2019-03-18T17:55:04.569Z,52.17
2019-03-18T17:57:32.987Z,60.23
2019-03-18T18:00:01.233Z,67.27
2019-03-18T18:02:29.448Z,47.03
2019-03-18T18:05:02.937Z,35.90
2019-03-18T18:07:27.799Z,57.57
2019-03-18T18:09:55.989Z,68.07
2019-03-18T18:12:24.156Z,64.60
2019-03-18T18:14:52.625Z,73.63
2019-03-18T18:17:20.852Z,84.00
2019-03-18T18:19:49.071Z,94.70
2019-03-18T18:22:17.355Z,88.87
2019-03-18T18:24:45.539Z,71.87
2019-03-18T18:27:13.696Z,65.77
2019-03-18T18:29:42.190Z,68.10
2019-03-18T18:32:10.944Z,65.60
2019-03-18T18:34:39.240Z,67.43
2019-03-18T18:37:07.451Z,102.20
2019-03-18T18:39:35.895Z,84.90
2019-03-18T18:42:04.307Z,75.57
2019-03-18T18:44:32.643Z,50.00
2019-03-18T18:47:01.143Z,71.70
2019-03-18T18:49:29.687Z,65.30
2019-03-18T18:51:58.093Z,79.60
2019-03-18T18:54:26.660Z,86.20
2019-03-18T18:56:54.984Z,83.63
2019-03-18T18:59:23.315Z,91.53
2019-03-18T19:01:51.505Z,90.33
2019-03-18T19:04:19.760Z,111.57
2019-03-18T19:06:47.992Z,115.37
2019-03-18T19:09:16.303Z,111.83
2019-03-18T19:11:44.509Z,100.00
2019-03-18T19:14:14.123Z,92.57
2019-03-18T19:16:42.902Z,82.77
2019-03-18T19:19:11.379Z,82.63
2019-03-18T19:21:39.638Z,86.97
2019-03-18T19:24:08.700Z,68.40
2019-03-18T19:26:37.052Z,86.17
2019-03-18T19:29:05.283Z,78.20
2019-03-18T19:31:33.780Z,83.53
2019-03-18T19:34:03.043Z,85.27
2019-03-18T19:36:31.264Z,88.07
2019-03-18T19:39:00.655Z,131.97
2019-03-18T19:41:28.956Z,150.77
2019-03-18T19:43:57.126Z,222.87
2019-03-18T19:46:25.333Z,256.40
2019-03-18T19:48:53.797Z,271.03
2019-03-18T19:51:21.945Z,215.37
2019-03-18T19:53:50.193Z,284.67
2019-03-18T19:56:19.402Z,233.70
2019-03-18T19:58:48.125Z,262.97
2019-03-18T20:01:16.686Z,247.97
2019-03-18T20:03:44.887Z,273.20
2019-03-18T20:06:13.168Z,309.87
2019-03-18T20:08:42.619Z,300.87
2019-03-18T20:11:10.743Z,281.27
2019-03-18T20:13:39.126Z,283.50
2019-03-18T20:16:07.674Z,267.00
2019-03-18T20:18:36.121Z,244.13
2019-03-18T20:21:04.376Z,189.00
2019-03-18T20:23:33.294Z,151.87
2019-03-18T20:26:01.774Z,185.23
2019-03-18T20:28:30.214Z,192.03
2019-03-18T20:30:59.152Z,291.33
2019-03-18T20:33:27.419Z,348.23
2019-03-18T20:35:56.706Z,392.73
2019-03-18T20:38:25.124Z,410.03
2019-03-18T20:40:53.709Z,514.40
2019-03-18T20:43:22.469Z,424.70
2019-03-18T20:45:50.821Z,331.03
2019-03-18T20:48:19.098Z,332.57
2019-03-18T20:50:47.590Z,330.90
2019-03-18T20:53:15.889Z,322.63
2019-03-18T20:55:44.758Z,300.87
2019-03-18T20:58:13.240Z,315.97
2019-03-18T21:00:41.793Z,334.47
2019-03-18T21:03:09.998Z,484.37
2019-03-18T21:05:38.164Z,354.63
2019-03-18T21:08:06.529Z,346.23
2019-03-18T21:10:35.325Z,306.03
2019-03-18T21:13:03.925Z,294.97
2019-03-18T21:15:32.364Z,287.17
2019-03-18T21:18:00.675Z,295.80
2019-03-18T21:20:29.284Z,285.23
2019-03-18T21:22:57.920Z,291.47
2019-03-18T21:25:26.144Z,274.93
2019-03-18T21:27:54.333Z,292.60
2019-03-18T21:30:22.836Z,268.83
2019-03-18T21:32:51.083Z,240.00
2019-03-18T21:35:20.019Z,238.67
2019-03-18T21:37:49.740Z,261.57
2019-03-18T21:40:18.633Z,265.37
2019-03-18T21:42:47.107Z,293.90
2019-03-18T21:45:16.982Z,280.10
2019-03-18T21:47:47.768Z,223.17
2019-03-18T21:50:33.995Z,250.63
2019-03-18T21:53:02.578Z,313.60
2019-03-18T21:55:31.123Z,265.33
2019-03-18T21:57:59.499Z,273.57
2019-03-18T22:00:28.073Z,279.67
2019-03-18T22:02:56.239Z,230.17
2019-03-18T22:05:24.460Z,183.13
2019-03-18T22:07:52.995Z,151.87
2019-03-18T22:10:21.212Z,241.60
2019-03-18T22:12:49.759Z,161.23
2019-03-18T22:15:17.990Z,313.30
2019-03-18T22:17:46.293Z,258.03
2019-03-18T22:20:15.617Z,228.23
2019-03-18T22:22:44.090Z,319.23
2019-03-18T22:25:12.766Z,224.60
2019-03-18T22:27:41.458Z,228.03
2019-03-18T22:30:11.148Z,206.00
2019-03-18T22:32:39.410Z,220.07
2019-03-18T22:35:08.033Z,268.13
2019-03-18T22:37:36.808Z,206.33
2019-03-18T22:40:13.024Z,181.03
2019-03-18T22:42:41.470Z,154.67
2019-03-18T22:45:10.922Z,196.83
2019-03-18T22:47:39.228Z,147.90
2019-03-18T22:50:09.971Z,91.53
2019-03-18T22:52:38.275Z,99.53
2019-03-18T22:55:10.178Z,142.70
2019-03-18T22:57:38.797Z,191.13
2019-03-18T23:00:12.906Z,206.77
2019-03-18T23:02:43.831Z,155.37
2019-03-18T23:05:13.801Z,222.97
2019-03-18T23:07:42.187Z,259.53
2019-03-18T23:10:10.443Z,179.07
2019-03-18T23:12:38.609Z,140.07
2019-03-18T23:15:07.707Z,133.17
2019-03-18T23:17:36.246Z,118.17
2019-03-18T23:20:07.270Z,108.20
2019-03-18T23:22:37.900Z,91.67
2019-03-18T23:25:08.677Z,131.97
2019-03-18T23:27:39.556Z,128.43
2019-03-18T23:30:09.363Z,116.87
2019-03-18T23:32:40.044Z,94.20
2019-03-18T23:35:10.736Z,90.47
2019-03-18T23:37:43.570Z,79.90
2019-03-18T23:40:14.466Z,95.23
2019-03-18T23:42:45.985Z,68.53
2019-03-18T23:45:14.387Z,75.27
2019-03-18T23:47:42.865Z,69.33
2019-03-18T23:50:14.117Z,71.70
2019-03-18T23:52:49.681Z,93.70
2019-03-18T23:55:19.859Z,72.50
2019-03-18T23:57:50.187Z,63.80
